EDT,Max TemperatureF,Mean TemperatureF,Min TemperatureF,Max Dew PointF,MeanDew PointF,Min DewpointF,Max Humidity, Mean Humidity, Min Humidity, Max Sea Level PressureIn, Mean Sea Level PressureIn, Min Sea Level PressureIn, Max VisibilityMiles, Mean VisibilityMiles, Min VisibilityMiles, Max Wind SpeedMPH, Mean Wind SpeedMPH, Max Gust SpeedMPH,PrecipitationIn, CloudCover, Events, WindDirDegrees
2012-10-1,67,55,43,50,45,40,89,67,44,29.92,29.84,29.76,10,10,4,15,8,21,0.27,2,Rain,72
2012-10-2,61,57,53,59,55,50,100,95,89,29.90,29.79,29.72,6,2,0,16,8,22,0.49,8,Fog-Rain,63
2012-10-3,69,63,57,57,53,48,93,71,49,30.09,30.00,29.89,10,9,4,18,7,25,0.01,6,Rain,204
2012-10-4,77,66,54,55,51,48,77,59,40,30.16,30.11,30.08,10,10,10,18,8,26,0.00,1,,215
2012-10-5,66,53,40,55,44,37,93,78,63,30.16,30.10,30.05,10,7,2,15,7,22,1.18,7,Rain,303
2012-10-6,53,44,34,39,34,31,92,70,48,30.16,30.11,30.06,10,10,10,15,7,21,0.00,2,,287
2012-10-7,49,40,31,36,31,26,85,64,42,30.20,30.16,30.12,10,10,10,15,4,18,0.00,4,,258
2012-10-8,55,42,28,30,27,25,92,61,30,30.25,30.19,30.13,10,10,10,12,4,15,0.00,0,,211
2012-10-9,62,51,39,38,35,30,79,58,36,30.14,30.04,29.92,10,10,8,17,9,26,0.00,0,,198
2012-10-10,52,44,35,43,35,23,89,63,36,30.23,30.04,29.89,10,10,6,25,11,31,T,5,Rain,286
2012-10-11,59,47,35,33,29,28,75,54,33,30.28,30.22,30.15,10,10,10,18,8,25,0.00,0,,216
2012-10-12,56,46,36,39,32,24,82,56,30,30.41,30.32,30.17,10,10,10,18,9,23,T,2,,63
2012-10-13,67,53,38,61,44,28,90,71,51,30.32,30.15,29.94,10,9,2,17,9,24,0.06,3,Rain,179
2012-10-14,74,64,53,61,56,47,87,68,49,29.91,29.74,29.57,10,10,2,31,19,45,0.19,6,Rain,211
2012-10-15,56,48,39,48,43,36,93,72,51,29.98,29.86,29.77,10,9,3,21,9,26,0.03,6,Rain,282
2012-10-16,65,50,34,41,37,33,92,65,37,30.00,29.90,29.74,10,8,2,17,8,24,0.00,0,,177
2012-10-17,74,64,54,54,48,42,80,58,35,29.73,29.64,29.47,10,9,2,26,12,38,0.41,4,Rain,187
2012-10-18,64,57,49,52,43,27,83,55,27,29.63,29.51,29.39,10,8,2,25,12,38,0.69,5,Rain,216
2012-10-19,51,49,46,43,41,36,86,73,59,29.67,29.60,29.54,10,9,2,16,9,22,0.23,8,Rain,223
2012-10-20,54,48,41,43,40,38,89,74,59,29.98,29.81,29.67,10,10,10,18,8,22,T,6,Rain,253
2012-10-21,67,51,35,46,42,34,93,69,45,30.11,30.06,29.98,10,9,5,13,5,15,0.00,0,,180
2012-10-22,75,65,54,58,50,45,72,58,43,30.07,30.03,29.98,10,10,10,21,8,29,T,3,,186
2012-10-23,70,65,59,57,54,50,90,73,56,30.08,30.01,29.96,10,7,1,18,7,26,0.89,7,Rain-Thunderstorm,220
2012-10-24,78,69,60,57,52,50,69,54,39,30.04,30.00,29.96,10,10,10,16,9,22,0.00,1,Rain,195
2012-10-25,76,68,59,54,52,50,69,56,43,30.00,29.93,29.87,10,10,10,20,11,30,0.00,0,,195
2012-10-26,67,55,43,52,41,35,93,76,58,30.23,30.13,29.89,10,9,4,22,11,28,0.13,8,Rain,347
2012-10-27,53,44,35,35,32,29,82,63,44,30.21,30.17,30.12,10,10,10,20,12,25,0.00,1,,5
2012-10-28,49,42,34,32,30,28,89,70,50,30.17,30.14,30.10,10,10,10,22,12,29,0.00,4,,12
2012-10-29,46,40,34,28,24,17,75,53,31,30.12,30.02,29.81,10,10,10,31,19,38,0.00,0,,346
2012-10-30,41,39,37,36,33,22,92,69,45,29.78,29.63,29.58,10,9,4,36,21,45,0.43,8,Rain-Snow,328
2012-10-31,40,38,36,36,34,31,92,81,70,29.82,29.73,29.65,10,9,4,21,13,28,0.08,8,Rain,299